.
WxDataArchive / Data Records for 2007-09-20
2007-09-19 September 2007 2007-09-21

Data Records for Thursday, 20 September 2007

Time	Temp	Chill	HIndex	Humid	Dewpt	 Wind 	HiWind	WindDir	Rain 	Barom 
-----	----	-----	------	-----	-----	------	------	-------	-----	----- 
00:00	66.0	66.0	66.0	82	60.3	0	0	---	0.00	30.088 
00:05	65.8	65.8	65.8	82	60.1	0	0	---	0.00	30.086 
00:10	65.6	65.6	65.6	83	60.3	0	0	---	0.00	30.088 
00:15	65.5	65.5	65.5	84	60.5	0	0	---	0.00	30.089 
00:20	65.2	65.2	65.2	84	60.2	0	0	---	0.00	30.092 
00:25	65.0	65.0	65.0	84	60.0	0	0	---	0.00	30.093 
00:30	64.8	64.8	64.8	85	60.2	0	0	---	0.00	30.095 
00:35	64.7	64.7	64.7	86	60.4	0	0	---	0.00	30.094 
00:40	64.5	64.5	64.5	86	60.2	0	0	---	0.00	30.096 
00:45	64.3	64.3	64.3	87	60.3	0	0	---	0.00	30.097 
00:50	64.2	64.2	64.2	87	60.2	0	0	---	0.00	30.096 
00:55	64.0	64.0	64.0	88	60.4	0	0	---	0.00	30.096 
01:00	63.9	63.9	63.9	88	60.3	0	0	---	0.00	30.098 
01:05	63.9	63.9	63.9	88	60.3	0	0	---	0.00	30.097 
01:10	63.7	63.7	63.7	88	60.1	0	0	---	0.00	30.098 
01:15	63.7	63.7	63.7	88	60.1	0	0	---	0.00	30.098 
01:20	63.5	63.5	63.5	88	59.9	0	0	---	0.00	30.098 
01:25	63.4	63.4	63.4	88	59.8	0	0	---	0.00	30.099 
01:30	63.2	63.2	63.2	89	59.9	0	0	---	0.00	30.099 
01:35	63.1	63.1	63.1	89	59.8	0	0	---	0.00	30.098 
01:40	63.1	63.1	63.1	90	60.1	0	0	---	0.00	30.099 
01:45	62.9	62.9	62.9	90	59.9	0	0	---	0.00	30.100 
01:50	62.9	62.9	62.9	90	59.9	0	0	---	0.00	30.099 
01:55	62.7	62.7	62.7	91	60.0	0	0	---	0.00	30.098 
02:00	62.7	62.7	62.7	91	60.0	0	0	---	0.00	30.099 
02:05	62.6	62.6	62.6	91	59.9	0	0	---	0.00	30.099 
02:10	62.6	62.6	62.6	91	59.9	0	0	---	0.00	30.100 
02:15	62.6	62.6	62.6	91	59.9	0	0	---	0.00	30.102 
02:20	62.6	62.6	62.6	92	60.2	0	0	---	0.00	30.101 
02:25	62.7	62.7	62.7	92	60.3	0	0	---	0.00	30.101 
02:30	62.7	62.7	62.7	92	60.3	0	0	---	0.00	30.100 
02:35	62.6	62.6	62.6	92	60.2	0	0	---	0.00	30.101 
02:40	62.6	62.6	62.6	92	60.2	0	0	---	0.00	30.102 
02:45	62.6	62.6	62.6	92	60.2	0	0	---	0.00	30.107 
02:50	62.4	62.4	62.4	92	60.0	0	0	---	0.00	30.108 
02:55	62.4	62.4	62.4	92	60.0	0	0	---	0.00	30.109 
03:00	62.4	62.4	62.4	92	60.0	0	0	---	0.00	30.109 
03:05	62.6	62.6	62.6	92	60.2	0	0	---	0.00	30.109 
03:10	62.6	62.6	62.6	92	60.2	0	0	---	0.00	30.109 
03:15	62.6	62.6	62.6	92	60.2	0	1	315	0.00	30.110 
03:20	62.7	62.7	62.7	92	60.3	0	0	---	0.00	30.110 
03:25	62.9	62.9	62.9	91	60.2	0	0	---	0.00	30.111 
03:30	62.9	62.9	62.9	91	60.2	0	0	---	0.00	30.112 
03:35	62.9	62.9	62.9	91	60.2	0	1	315	0.00	30.112 
03:40	62.9	62.9	62.9	91	60.2	0	0	---	0.00	30.113 
03:45	62.7	62.7	62.7	91	60.0	0	0	---	0.00	30.113 
03:50	62.6	62.6	62.6	91	59.9	0	0	---	0.00	30.113 
03:55	62.4	62.4	62.4	91	59.7	0	0	---	0.00	30.113 
04:00	62.4	62.4	62.4	91	59.7	0	0	---	0.00	30.116 
04:05	62.3	62.3	62.3	92	59.9	0	0	---	0.00	30.117 
04:10	62.3	62.3	62.3	92	59.9	0	0	---	0.00	30.118 
04:15	62.3	62.3	62.3	92	59.9	0	0	---	0.00	30.118 
04:20	62.3	62.3	62.3	92	59.9	0	0	---	0.00	30.120 
04:25	62.3	62.3	62.3	92	59.9	0	0	---	0.00	30.121 
04:30	62.3	62.3	62.3	92	59.9	0	0	---	0.00	30.123 
04:35	62.3	62.3	62.3	92	59.9	0	0	---	0.00	30.122 
04:40	62.3	62.3	62.3	92	59.9	0	0	---	0.00	30.122 
04:45	62.4	62.4	62.4	92	60.0	0	1	315	0.00	30.120 
04:50	62.4	62.4	62.4	92	60.0	0	0	---	0.00	30.123 
04:55	62.3	62.3	62.3	92	59.9	0	0	---	0.00	30.121 
05:00	62.1	62.1	62.1	92	59.7	0	0	---	0.00	30.124 
05:05	62.1	62.1	62.1	92	59.7	0	0	---	0.00	30.126 
05:10	62.0	62.0	62.0	92	59.6	0	0	---	0.00	30.129 
05:15	61.8	61.8	61.8	92	59.4	0	0	---	0.00	30.129 
05:20	61.6	61.6	61.6	92	59.2	0	0	---	0.00	30.129 
05:25	61.5	61.5	61.5	92	59.2	0	0	---	0.00	30.129 
05:30	61.3	61.3	61.3	92	59.0	0	0	---	0.00	30.125 
05:35	61.2	61.2	61.2	93	59.2	0	0	---	0.00	30.126 
05:40	61.0	61.0	61.0	93	59.0	0	0	---	0.00	30.129 
05:45	60.9	60.9	60.9	93	58.9	0	0	---	0.00	30.131 
05:50	60.7	60.7	60.7	93	58.7	0	0	---	0.00	30.130 
05:55	60.5	60.5	60.5	93	58.5	0	0	---	0.00	30.129 
06:00	60.4	60.4	60.4	94	58.7	0	0	---	0.00	30.132 
06:05	60.2	60.2	60.2	94	58.5	0	0	---	0.00	30.133 
06:10	60.1	60.1	60.1	94	58.4	0	0	---	0.00	30.133 
06:15	60.1	60.1	60.1	94	58.4	0	0	---	0.00	30.133 
06:20	59.9	59.9	59.9	95	58.5	0	0	---	0.00	30.136 
06:25	59.9	59.9	59.9	95	58.5	0	0	---	0.00	30.137 
06:30	59.8	59.8	59.8	95	58.4	0	0	---	0.00	30.137 
06:35	59.8	59.8	59.8	95	58.4	0	0	---	0.00	30.137 
06:40	59.8	59.8	59.8	95	58.4	0	0	---	0.00	30.135 
06:45	59.9	59.9	59.9	95	58.5	0	0	---	0.00	30.136 
06:50	59.9	59.9	59.9	96	58.8	0	0	---	0.00	30.137 
06:55	60.1	60.1	60.1	96	59.0	0	0	---	0.00	30.137 
07:00	60.1	60.1	60.1	96	59.0	0	0	---	0.00	30.137 
07:05	60.2	60.2	60.2	96	59.1	0	0	---	0.00	30.140 
07:10	60.4	60.4	60.4	96	59.3	0	0	---	0.00	30.140 
07:15	60.7	60.7	60.7	96	59.6	0	2	315	0.00	30.139 
07:20	61.2	61.2	61.2	96	60.0	0	1	315	0.00	30.140 
07:25	61.5	61.5	61.5	96	60.3	0	3	315	0.00	30.140 
07:30	61.8	61.8	61.8	95	60.3	1	3	22	0.00	30.138 
07:35	62.3	62.3	62.3	94	60.5	0	2	45	0.00	30.139 
07:40	62.6	62.6	62.6	92	60.2	0	2	45	0.00	30.138 
07:45	63.1	63.1	63.1	90	60.1	1	4	112	0.00	30.138 
07:50	63.5	63.5	63.5	89	60.2	0	3	112	0.00	30.140 
07:55	63.9	63.9	63.9	86	59.6	1	4	90	0.00	30.140 
08:00	64.2	64.2	64.2	87	60.2	1	4	112	0.00	30.147 
08:05	64.5	64.5	64.5	86	60.2	1	4	112	0.00	30.148 
08:10	64.8	64.8	64.8	85	60.2	2	7	90	0.00	30.149 
08:15	65.0	65.0	65.0	85	60.4	2	5	90	0.00	30.150 
08:20	65.3	65.3	65.3	84	60.3	2	7	90	0.00	30.148 
08:25	65.5	65.5	65.5	84	60.5	3	6	90	0.00	30.147 
08:30	65.8	65.8	65.8	84	60.8	1	4	90	0.00	30.147 
08:35	66.1	66.1	66.1	84	61.1	1	5	68	0.00	30.149 
08:40	66.6	66.6	66.6	84	61.6	1	4	68	0.00	30.150 
08:45	67.1	67.1	67.1	82	61.4	3	7	90	0.00	30.148 
08:50	67.6	67.6	67.6	80	61.2	2	7	112	0.00	30.145 
08:55	67.9	67.9	67.9	79	61.1	3	7	90	0.00	30.144 
09:00	68.1	68.1	68.1	79	61.3	3	10	112	0.00	30.142 
09:05	68.4	68.4	68.4	78	61.3	2	6	90	0.00	30.143 
09:10	68.8	68.8	68.8	78	61.7	2	6	90	0.00	30.138 
09:15	69.3	69.3	69.3	76	61.4	2	6	90	0.00	30.139 
09:20	69.4	69.4	69.4	77	61.9	2	5	90	0.00	30.141 
09:25	69.8	69.8	69.8	76	61.9	3	7	90	0.00	30.141 
09:30	69.9	69.9	69.9	75	61.6	3	7	90	0.00	30.144 
09:35	70.3	70.3	70.3	76	62.4	2	4	112	0.00	30.146 
09:40	70.8	70.8	70.8	75	62.5	2	5	90	0.00	30.144 
09:45	71.1	71.1	71.1	76	63.1	1	4	90	0.00	30.141 
09:50	71.6	71.6	71.6	74	62.9	1	4	90	0.00	30.145 
09:55	71.8	71.8	71.8	74	63.1	3	6	112	0.00	30.143 
10:00	72.0	72.0	72.0	72	62.5	1	4	90	0.00	30.141 
10:05	71.8	71.8	71.8	72	62.3	3	6	90	0.00	30.141 
10:10	72.3	72.3	72.3	74	63.5	1	3	90	0.00	30.139 
10:15	73.2	73.2	73.2	72	63.6	1	4	90	0.00	30.138 
10:20	73.9	73.9	73.9	70	63.5	1	3	68	0.00	30.138 
10:25	74.0	74.0	74.0	70	63.6	1	6	90	0.00	30.137 
10:30	74.2	74.2	74.2	68	62.9	2	4	90	0.00	30.136 
10:35	73.9	73.9	73.9	68	62.7	2	5	112	0.00	30.134 
10:40	73.7	73.7	73.7	68	62.5	2	5	90	0.00	30.133 
10:45	73.7	73.7	73.7	69	62.9	2	4	90	0.00	30.132 
10:50	74.0	74.0	74.0	69	63.2	2	5	90	0.00	30.131 
10:55	74.4	74.4	74.4	68	63.1	3	6	90	0.00	30.131 
11:00	74.4	74.4	74.4	68	63.1	1	5	90	0.00	30.128 
11:05	74.9	74.9	74.9	68	63.6	1	4	90	0.00	30.130 
11:10	75.6	75.6	77.5	65	63.0	1	4	90	0.00	30.132 
11:15	76.3	76.3	78.1	65	63.6	1	3	112	0.00	30.128 
11:20	76.3	76.3	78.1	65	63.6	2	5	90	0.00	30.129 
11:25	76.5	76.5	78.3	63	62.9	2	5	90	0.00	30.123 
11:30	76.8	76.8	78.6	65	64.1	1	4	90	0.00	30.123 
11:35	77.2	77.2	79.0	62	63.2	1	4	90	0.00	30.122 
11:40	77.7	77.7	79.5	65	65.0	0	2	90	0.00	30.116 
11:45	78.1	78.1	79.8	60	63.1	2	6	90	0.00	30.116 
11:50	77.9	77.9	79.5	59	62.4	2	6	112	0.00	30.115 
11:55	77.6	77.6	79.3	61	63.1	2	6	112	0.00	30.114 
12:00	77.7	77.7	79.4	62	63.6	2	4	112	0.00	30.115 
12:05	77.9	77.9	79.6	62	63.8	2	5	90	0.00	30.116 
12:10	77.6	77.6	79.3	61	63.1	1	4	112	0.00	30.114 
12:15	77.9	77.9	79.6	60	62.9	1	4	112	0.00	30.110 
12:20	78.5	78.5	80.2	60	63.4	2	5	90	0.00	30.105 
12:25	78.3	78.3	80.1	62	64.2	2	5	112	0.00	30.104 
12:30	78.3	78.3	79.9	59	62.8	1	4	90	0.00	30.102 
12:35	78.8	78.8	80.2	56	61.8	1	3	112	0.00	30.100 
12:40	79.0	79.0	80.4	56	61.9	1	5	112	0.00	30.101 
12:45	79.0	79.0	80.8	61	64.4	2	6	112	0.00	30.101 
12:50	79.2	79.2	80.6	56	62.1	0	2	112	0.00	30.100 
12:55	79.6	79.6	80.8	54	61.5	1	5	112	0.00	30.097 
13:00	79.4	79.4	80.8	56	62.3	1	4	90	0.00	30.095 
13:05	79.4	79.4	80.7	55	61.8	2	5	90	0.00	30.089 
13:10	79.6	79.6	81.0	56	62.5	1	3	90	0.00	30.086 
13:15	79.9	79.9	80.9	52	60.7	1	3	90	0.00	30.086 
13:20	80.5	80.5	81.9	56	63.3	0	1	90	0.00	30.085 
13:25	80.9	80.9	82.0	53	62.1	1	3	90	0.00	30.084 
13:30	81.1	81.1	82.0	51	61.2	1	4	90	0.00	30.080 
13:35	80.9	80.9	82.3	55	63.2	1	4	112	0.00	30.075 
13:40	81.1	81.1	82.3	54	62.9	0	2	112	0.00	30.071 
13:45	81.4	81.4	82.8	55	63.7	0	2	112	0.00	30.070 
13:50	81.2	81.2	82.1	51	61.3	2	5	90	0.00	30.069 
13:55	81.2	81.2	82.5	54	62.9	0	3	90	0.00	30.068 
14:00	81.6	81.6	82.5	51	61.7	0	1	90	0.00	30.068 
14:05	82.0	82.0	82.9	51	62.1	0	1	90	0.00	30.068 
14:10	82.2	82.2	83.1	51	62.2	0	2	90	0.00	30.066 
14:15	82.4	82.4	83.7	53	63.5	1	5	112	0.00	30.060 
14:20	82.2	82.2	83.1	51	62.2	1	3	112	0.00	30.056 
14:25	82.2	82.2	83.6	54	63.9	1	3	135	0.00	30.055 
14:30	82.0	82.0	82.9	51	62.1	1	4	90	0.00	30.053 
14:35	82.0	82.0	82.8	50	61.5	1	3	90	0.00	30.052 
14:40	82.0	82.0	83.1	52	62.6	2	6	112	0.00	30.051 
14:45	81.8	81.8	82.6	50	61.3	2	4	112	0.00	30.050 
14:50	81.8	81.8	82.4	49	60.7	1	3	112	0.00	30.048 
14:55	82.2	82.2	83.1	51	62.2	1	3	270	0.00	30.044 
15:00	82.6	82.6	83.6	51	62.6	0	4	270	0.00	30.042 
15:05	83.0	83.0	83.9	50	62.4	0	1	90	0.00	30.040 
15:10	83.2	83.2	83.4	46	60.2	0	2	90	0.00	30.039 
15:15	83.0	83.0	84.1	51	63.0	1	3	90	0.00	30.036 
15:20	82.6	82.6	83.6	51	62.6	0	2	45	0.00	30.037 
15:25	82.6	82.6	83.4	50	62.0	0	2	45	0.00	30.036 
15:30	82.8	82.8	83.0	46	59.9	0	1	22	0.00	30.034 
15:35	82.8	82.8	83.0	46	59.9	1	3	112	0.00	30.033 
15:40	82.8	82.8	83.3	48	61.1	0	2	112	0.00	30.033 
15:45	82.6	82.6	83.1	48	60.9	0	1	112	0.00	30.027 
15:50	82.6	82.6	83.0	47	60.3	0	1	112	0.00	30.029 
15:55	82.6	82.6	82.7	45	59.1	0	2	112	0.00	30.028 
16:00	82.4	82.4	82.9	48	60.7	1	2	112	0.00	30.028 
16:05	82.0	82.0	82.3	47	59.8	0	2	112	0.00	30.029 
16:10	81.8	81.8	82.3	48	60.2	0	1	90	0.00	30.025 
16:15	81.8	81.8	82.6	50	61.3	0	1	90	0.00	30.023 
16:20	81.8	81.8	82.4	49	60.7	0	2	90	0.00	30.021 
16:25	81.6	81.6	82.5	51	61.7	1	3	90	0.00	30.022 
16:30	81.6	81.6	82.1	48	60.0	0	1	90	0.00	30.021 
16:35	81.4	81.4	82.0	49	60.4	0	2	90	0.00	30.021 
16:40	81.4	81.4	82.3	51	61.5	1	5	112	0.00	30.022 
16:45	81.2	81.2	82.1	51	61.3	0	1	112	0.00	30.022 
16:50	81.1	81.1	82.0	51	61.2	0	2	112	0.00	30.022 
16:55	80.9	80.9	81.8	51	61.0	1	2	112	0.00	30.021 
17:00	80.9	80.9	81.8	51	61.0	1	2	112	0.00	30.021 
17:05	80.9	80.9	81.8	51	61.0	0	1	112	0.00	30.023 
17:10	80.7	80.7	81.7	52	61.4	0	2	112	0.00	30.023 
17:15	80.5	80.5	81.4	51	60.7	0	2	112	0.00	30.023 
17:20	80.3	80.3	81.2	51	60.5	0	1	112	0.00	30.023 
17:25	80.3	80.3	81.5	54	62.1	0	1	112	0.00	30.023 
17:30	80.1	80.1	81.2	53	61.4	0	2	112	0.00	30.022 
17:35	79.9	79.9	81.1	54	61.7	0	0	---	0.00	30.022 
17:40	79.8	79.8	81.0	54	61.7	0	1	112	0.00	30.022 
17:45	79.6	79.6	80.8	54	61.5	0	2	112	0.00	30.022 
17:50	79.2	79.2	80.4	54	61.1	0	1	112	0.00	30.024 
17:55	79.0	79.0	80.4	56	61.9	0	0	---	0.00	30.025 
18:00	78.6	78.6	80.0	55	61.1	0	1	112	0.00	30.024 
18:05	78.5	78.5	80.0	57	62.0	0	0	---	0.00	30.024 
18:10	78.1	78.1	79.6	57	61.6	0	0	---	0.00	30.024 
18:15	77.7	77.7	79.3	58	61.7	0	0	---	0.00	30.024 
18:20	77.4	77.4	79.1	59	61.9	0	0	---	0.00	30.023 
18:25	76.8	76.8	78.6	60	61.8	0	0	---	0.00	30.020 
18:30	76.5	76.5	78.4	60	61.6	0	1	112	0.00	30.019 
18:35	76.1	76.1	78.1	60	61.2	0	1	112	0.00	30.020 
18:40	75.8	75.8	77.8	61	61.4	0	0	---	0.00	30.019 
18:45	75.4	75.4	77.5	62	61.5	0	0	---	0.00	30.020 
18:50	75.1	75.1	77.3	62	61.2	0	0	---	0.00	30.023 
18:55	74.7	74.7	74.7	63	61.2	0	0	---	0.00	30.024 
19:00	74.4	74.4	74.4	64	61.4	0	0	---	0.00	30.022 
19:05	73.9	73.9	73.9	65	61.4	0	0	---	0.00	30.016 
19:10	73.5	73.5	73.5	65	61.0	0	0	---	0.00	30.016 
19:15	73.2	73.2	73.2	66	61.1	0	0	---	0.00	30.018 
19:20	72.8	72.8	72.8	67	61.2	0	0	---	0.00	30.020 
19:25	72.5	72.5	72.5	68	61.3	0	0	---	0.00	30.022 
19:30	72.3	72.3	72.3	68	61.1	0	0	---	0.00	30.023 
19:35	72.0	72.0	72.0	69	61.3	0	0	---	0.00	30.024 
19:40	71.8	71.8	71.8	69	61.1	0	0	---	0.00	30.024 
19:45	71.5	71.5	71.5	70	61.2	0	0	---	0.00	30.025 
19:50	71.3	71.3	71.3	71	61.4	0	1	112	0.00	30.027 
19:55	71.6	71.6	71.6	69	60.9	1	2	112	0.00	30.026 
20:00	72.1	72.1	72.1	69	61.4	1	3	112	0.00	30.024 
20:05	72.1	72.1	72.1	68	60.9	1	3	90	0.00	30.021 
20:10	72.1	72.1	72.1	69	61.4	1	3	90	0.00	30.020 
20:15	72.0	72.0	72.0	69	61.3	1	2	90	0.00	30.021 
20:20	71.6	71.6	71.6	69	60.9	1	3	90	0.00	30.021 
20:25	71.5	71.5	71.5	69	60.8	1	3	90	0.00	30.021 
20:30	71.3	71.3	71.3	70	61.0	1	4	90	0.00	30.025 
20:35	70.9	70.9	70.9	71	61.0	1	2	90	0.00	30.025 
20:40	70.8	70.8	70.8	71	60.9	1	3	90	0.00	30.024 
20:45	70.4	70.4	70.4	71	60.5	1	3	90	0.00	30.024 
20:50	70.3	70.3	70.3	71	60.4	1	4	90	0.00	30.024 
20:55	70.1	70.1	70.1	71	60.2	2	4	90	0.00	30.024 
21:00	69.9	69.9	69.9	72	60.4	2	3	68	0.00	30.022 
21:05	69.8	69.8	69.8	72	60.4	2	3	68	0.00	30.019 
21:10	69.6	69.6	69.6	73	60.6	1	3	90	0.00	30.019 
21:15	69.4	69.4	69.4	73	60.4	1	3	90	0.00	30.019 
21:20	69.1	69.1	69.1	73	60.1	1	3	90	0.00	30.020 
21:25	69.1	69.1	69.1	73	60.1	2	5	68	0.00	30.020 
21:30	69.1	69.1	69.1	73	60.1	1	2	90	0.00	30.019 
21:35	68.9	68.9	68.9	74	60.3	1	3	90	0.00	30.019 
21:40	68.8	68.8	68.8	74	60.2	1	3	90	0.00	30.020 
21:45	68.6	68.6	68.6	75	60.3	1	3	90	0.00	30.018 
21:50	68.4	68.4	68.4	75	60.2	1	3	90	0.00	30.018 
21:55	68.3	68.3	68.3	76	60.4	1	3	90	0.00	30.019 
22:00	68.1	68.1	68.1	76	60.2	1	3	90	0.00	30.019 
22:05	67.9	67.9	67.9	77	60.4	1	3	90	0.00	30.015 
22:10	67.8	67.8	67.8	77	60.3	1	2	90	0.00	30.015 
22:15	67.6	67.6	67.6	78	60.5	1	2	90	0.00	30.014 
22:20	67.4	67.4	67.4	78	60.3	1	2	90	0.00	30.013 
22:25	67.3	67.3	67.3	79	60.6	1	2	90	0.00	30.013 
22:30	67.1	67.1	67.1	79	60.4	1	2	90	0.00	30.012 
22:35	66.9	66.9	66.9	80	60.5	1	2	90	0.00	30.011 
22:40	66.8	66.8	66.8	80	60.4	0	2	90	0.00	30.012 
22:45	66.4	66.4	66.4	81	60.4	0	3	90	0.00	30.011 
22:50	66.3	66.3	66.3	81	60.3	0	2	90	0.00	30.012 
22:55	66.1	66.1	66.1	82	60.4	0	2	90	0.00	30.009 
23:00	66.0	66.0	66.0	82	60.3	0	1	90	0.00	30.010 
23:05	65.8	65.8	65.8	83	60.5	1	2	90	0.00	30.006 
23:10	65.6	65.6	65.6	83	60.3	1	3	90	0.00	30.004 
23:15	65.6	65.6	65.6	84	60.6	0	2	90	0.00	30.004 
23:20	65.5	65.5	65.5	84	60.5	1	2	90	0.00	30.004 
23:25	65.5	65.5	65.5	84	60.5	1	2	90	0.00	30.004 
23:30	65.3	65.3	65.3	84	60.3	1	2	90	0.00	30.004 
23:35	65.3	65.3	65.3	84	60.3	0	1	90	0.00	30.006 
23:40	65.2	65.2	65.2	85	60.6	0	1	90	0.00	30.006 
23:45	64.8	64.8	64.8	85	60.2	0	0	---	0.00	30.005 
23:50	64.7	64.7	64.7	86	60.4	0	1	90	0.00	30.003 
23:55	64.7	64.7	64.7	86	60.4	0	1	90	0.00	30.001 

CoCoRaHS
IN-AL-39
A2 Web Hosting
Creative Commons License
GoDaddy
Look for:

loaded 2017-10-19 14:33:26 • last modified 2010-11-18 10:43:29
Privacy PolicyDisclaimer
• wx.awcolley.com is powered by PmWiki v.2002016 •
• all content (unless otherwise noted) © 2017 A W Colley